Time;durP1;ratioP1;P1;durP2;ratioP2;P2;SDS_P1;SDS_P2;PMS_P1;PMS_P2;Temp;Humidity;BMP_temperature;BMP_pressure;BME280_temperature;BME280_humidity;BME280_pressure;Samples;Min_cycle;Max_cycle;Signal;HPM_P1;HPM_P2
2023/07/06 00:02:16;;;;;;;2.00;1.80;;;;;;;16.16;50.04;98948.59;5137021;27;41823;-78
2023/07/06 00:04:46;;;;;;;1.83;1.60;;;;;;;16.19;50.24;98962.69;5136621;27;42696;-78
2023/07/06 00:07:20;;;;;;;2.10;1.90;;;;;;;16.12;50.46;98960.50;5136894;27;42661;-78
2023/07/06 00:09:49;;;;;;;2.53;1.60;;;;;;;16.07;50.13;98953.88;5136509;27;42761;-78
2023/07/06 00:12:18;;;;;;;2.67;2.13;;;;;;;16.05;50.29;98955.81;5119396;27;41848;-78
2023/07/06 00:14:46;;;;;;;2.63;2.00;;;;;;;15.90;50.54;98947.25;5119000;27;42655;-78
2023/07/06 00:17:17;;;;;;;2.27;1.70;;;;;;;15.99;50.61;98962.50;5119646;27;42218;-78
2023/07/06 00:19:48;;;;;;;2.40;1.93;;;;;;;16.00;50.73;98968.69;5154050;27;41882;-78
2023/07/06 00:22:16;;;;;;;2.00;1.73;;;;;;;15.99;51.01;98970.50;5133555;27;41909;-78
2023/07/06 00:24:46;;;;;;;2.07;1.83;;;;;;;15.96;50.83;98973.44;5119291;27;41737;-78
2023/07/06 00:27:15;;;;;;;2.60;2.23;;;;;;;15.78;51.23;98948.25;5136541;27;42604;-79
2023/07/06 00:29:56;;;;;;;4.50;2.53;;;;;;;15.93;52.45;98968.38;5118853;27;41390;-78
2023/07/06 00:32:31;;;;;;;2.90;2.30;;;;;;;15.89;51.93;98969.59;5136247;27;41087;-79
2023/07/06 00:35:00;;;;;;;2.53;2.23;;;;;;;15.83;51.96;98970.06;5133455;27;43782;-79
2023/07/06 00:37:29;;;;;;;2.80;1.97;;;;;;;15.71;52.10;98963.91;5118866;27;41403;-78
2023/07/06 00:39:57;;;;;;;2.93;2.20;;;;;;;15.75;52.21;98975.22;5118929;27;39896;-78
2023/07/06 00:42:24;;;;;;;2.53;2.00;;;;;;;15.70;52.01;98974.75;5119168;27;40970;-78
2023/07/06 00:44:55;;;;;;;2.17;1.90;;;;;;;15.52;52.28;98953.03;5118817;27;42832;-78
2023/07/06 00:47:40;;;;;;;2.67;2.27;;;;;;;15.59;52.51;98980.09;5119103;27;42262;-78
2023/07/06 00:50:11;;;;;;;2.87;2.00;;;;;;;15.41;52.71;98956.56;5119043;27;40022;-78
2023/07/06 00:52:44;;;;;;;2.63;2.33;;;;;;;15.31;52.54;98941.41;5118859;27;41818;-78
2023/07/06 00:55:15;;;;;;;2.43;1.77;;;;;;;15.46;52.63;98969.50;5119060;27;42205;-77
2023/07/06 00:57:45;;;;;;;2.30;1.90;;;;;;;15.24;53.05;98949.06;5118527;27;42081;-78
2023/07/06 01:00:20;;;;;;;2.77;2.00;;;;;;;15.38;53.49;98961.28;5118728;27;39871;-78
2023/07/06 01:02:53;;;;;;;2.83;2.10;;;;;;;15.33;54.18;98963.50;5118761;27;40768;-77
2023/07/06 01:05:26;;;;;;;2.73;1.77;;;;;;;15.30;54.13;98964.59;5135651;27;41640;-78
2023/07/06 01:07:57;;;;;;;2.83;2.00;;;;;;;15.25;54.02;98965.91;5118033;27;42218;-77
2023/07/06 01:10:25;;;;;;;2.63;2.03;;;;;;;15.16;54.27;98956.84;5118651;27;39852;-78
2023/07/06 01:12:53;;;;;;;2.47;1.90;;;;;;;15.08;54.58;98952.09;5118518;27;40855;-77
2023/07/06 01:15:21;;;;;;;2.60;1.70;;;;;;;15.10;54.58;98959.97;5118497;27;42022;-78
2023/07/06 01:17:57;;;;;;;2.90;1.97;;;;;;;15.03;54.44;98958.78;5135563;27;42969;-77
2023/07/06 01:20:30;;;;;;;2.87;1.93;;;;;;;15.01;54.62;98963.38;5132680;27;40891;-78
2023/07/06 01:23:30;;;;;;;2.97;2.10;;;;;;;14.95;55.30;98964.72;5132854;27;42643;-78
2023/07/06 01:26:13;;;;;;;3.30;2.07;;;;;;;14.89;54.92;98964.34;5085833;27;41661;-78
2023/07/06 01:28:57;;;;;;;2.23;2.03;;;;;;;14.81;55.21;98961.44;5117750;27;41470;-78
2023/07/06 01:31:36;;;;;;;3.37;1.90;;;;;;;14.80;55.44;98965.06;5135313;27;39742;-78
2023/07/06 01:34:10;;;;;;;4.07;1.90;;;;;;;14.73;55.60;98964.69;5118055;27;41056;-78
2023/07/06 01:36:44;;;;;;;2.60;1.93;;;;;;;14.69;55.55;98968.56;5134929;27;43683;-78
2023/07/06 01:39:15;;;;;;;3.40;2.50;;;;;;;14.63;56.15;98964.56;5117575;27;41247;-78
2023/07/06 01:41:45;;;;;;;3.50;2.10;;;;;;;14.52;55.96;98959.19;5135059;27;40305;-78
2023/07/06 01:44:15;;;;;;;2.30;1.83;;;;;;;14.52;56.57;98961.88;5117655;27;40569;-78
2023/07/06 01:46:49;;;;;;;2.50;2.00;;;;;;;14.43;56.28;98945.75;5134988;27;41899;-79
2023/07/06 01:49:18;;;;;;;2.13;1.73;;;;;;;14.44;56.55;98956.28;5118230;27;41217;-78
2023/07/06 01:51:56;;;;;;;3.00;2.10;;;;;;;14.40;56.72;98957.47;5117742;27;41532;-78
2023/07/06 01:54:35;;;;;;;3.27;2.50;;;;;;;14.38;57.80;98951.38;5134895;27;40531;-78
2023/07/06 01:57:05;;;;;;;3.47;2.50;;;;;;;14.36;58.79;98945.31;5118427;27;42768;-78
2023/07/06 01:59:36;;;;;;;3.77;2.23;;;;;;;14.21;58.49;98922.53;5134858;27;42681;-78
2023/07/06 02:02:07;;;;;;;2.60;1.83;;;;;;;14.35;58.38;98954.28;5117679;27;39973;-78
2023/07/06 02:04:43;;;;;;;2.67;2.37;;;;;;;14.32;58.22;98954.53;5117434;27;41247;-77
2023/07/06 02:07:13;;;;;;;2.30;2.10;;;;;;;14.28;58.55;98961.03;5117458;27;41528;-77
2023/07/06 02:09:44;;;;;;;2.40;1.90;;;;;;;14.22;58.36;98953.50;5117295;27;41586;-78
2023/07/06 02:12:13;;;;;;;2.83;1.90;;;;;;;14.19;58.43;98967.06;5117906;27;40320;-78
2023/07/06 02:14:41;;;;;;;3.40;2.27;;;;;;;14.14;58.30;98961.25;5134733;27;41675;-78
2023/07/06 02:17:11;;;;;;;2.33;2.10;;;;;;;13.97;58.01;98950.03;5134777;27;43456;-78
2023/07/06 02:19:39;;;;;;;2.50;2.03;;;;;;;14.03;58.79;98960.22;5117282;27;41160;-78
2023/07/06 02:22:08;;;;;;;3.23;2.43;;;;;;;13.99;59.01;98964.06;5117544;27;39952;-78
2023/07/06 02:24:36;;;;;;;4.57;2.57;;;;;;;13.94;58.73;98966.25;5134489;27;41802;-79
2023/07/06 02:27:05;;;;;;;2.30;2.03;;;;;;;13.87;59.04;98957.00;5117351;27;41728;-77
2023/07/06 02:29:34;;;;;;;3.20;2.10;;;;;;;13.73;58.72;98941.19;5134493;27;42253;-78
2023/07/06 02:32:01;;;;;;;2.37;1.87;;;;;;;13.76;58.93;98954.28;5117633;27;40690;-78
2023/07/06 02:34:31;;;;;;;3.57;2.10;;;;;;;13.78;58.48;98964.84;5117192;27;41701;-78
2023/07/06 02:36:58;;;;;;;3.13;1.70;;;;;;;13.57;58.44;98933.53;5134456;27;42747;-78
2023/07/06 02:39:27;;;;;;;2.93;1.80;;;;;;;13.74;58.79;98958.03;5134307;27;43234;-78
2023/07/06 02:41:56;;;;;;;2.20;2.00;;;;;;;13.70;58.35;98965.41;5117051;27;40933;-78
2023/07/06 02:44:25;;;;;;;2.53;1.90;;;;;;;13.70;59.02;98967.22;5116198;27;40608;-78
2023/07/06 02:46:54;;;;;;;2.37;2.17;;;;;;;13.67;59.36;98970.94;5152737;27;42686;-78
2023/07/06 02:49:22;;;;;;;2.40;1.93;;;;;;;13.63;59.25;98961.47;5134091;27;41193;-78
2023/07/06 02:51:51;;;;;;;2.60;2.10;;;;;;;13.60;59.23;98964.34;5134142;27;40094;-78
2023/07/06 02:54:20;;;;;;;2.47;1.80;;;;;;;13.56;59.58;98968.22;5116718;27;43535;-78
2023/07/06 02:56:48;;;;;;;1.87;1.63;;;;;;;13.51;59.13;98963.22;5116742;27;41539;-78
2023/07/06 02:59:16;;;;;;;3.10;2.37;;;;;;;13.48;59.52;98970.56;5134093;27;43327;-78
2023/07/06 03:01:45;;;;;;;2.37;2.13;;;;;;;13.43;59.99;98964.75;5134018;27;41964;-78
2023/07/06 03:04:12;;;;;;;2.47;2.20;;;;;;;13.40;59.68;98959.66;5116525;27;40780;-78
2023/07/06 03:06:41;;;;;;;2.37;1.70;;;;;;;13.37;59.85;98981.13;5152455;27;42770;-79
2023/07/06 03:09:10;;;;;;;2.30;1.80;;;;;;;13.35;60.01;98973.31;5152272;27;42056;-78
2023/07/06 03:11:44;;;;;;;3.20;2.07;;;;;;;13.33;59.91;98979.69;5133927;27;40884;-79
2023/07/06 03:14:12;;;;;;;2.10;1.90;;;;;;;13.26;60.06;98969.47;5133223;27;41865;-77
2023/07/06 03:16:40;;;;;;;2.17;1.87;;;;;;;13.28;59.88;98978.19;5133838;27;42731;-78
2023/07/06 03:19:09;;;;;;;2.53;2.23;;;;;;;13.23;59.75;98972.34;5116443;27;42613;-77
2023/07/06 03:21:38;;;;;;;2.30;2.10;;;;;;;13.25;59.72;98978.41;5133901;27;40887;-78
2023/07/06 03:24:07;;;;;;;2.67;1.90;;;;;;;13.25;59.67;98978.41;5133455;27;43160;-78
2023/07/06 03:26:39;;;;;;;2.00;1.60;;;;;;;13.19;60.00;98973.53;5133886;27;41625;-78
2023/07/06 03:29:08;;;;;;;3.93;2.00;;;;;;;13.23;60.08;98990.97;5116664;27;42399;-77
2023/07/06 03:31:36;;;;;;;2.77;2.07;;;;;;;13.19;60.22;98983.31;5133661;27;40948;-78
2023/07/06 03:34:06;;;;;;;2.50;1.97;;;;;;;13.20;60.39;98983.22;5116333;27;40932;-78
2023/07/06 03:36:34;;;;;;;2.63;2.00;;;;;;;13.12;60.61;98972.22;5151689;27;42563;-77
2023/07/06 03:39:02;;;;;;;3.20;2.00;;;;;;;13.16;60.72;98984.38;5151797;27;43413;-78
2023/07/06 03:41:30;;;;;;;3.53;2.27;;;;;;;13.12;60.80;98974.03;5116376;27;40193;-78
2023/07/06 03:43:59;;;;;;;2.57;2.20;;;;;;;13.04;61.15;98969.25;5116157;27;41188;-78
2023/07/06 03:46:33;;;;;;;2.10;1.90;;;;;;;13.05;61.22;98976.28;5116794;27;41661;-78
2023/07/06 03:49:03;;;;;;;2.73;2.00;;;;;;;13.15;61.08;98990.66;5116713;27;41597;-78
2023/07/06 03:51:31;;;;;;;1.90;1.70;;;;;;;13.15;61.01;98988.00;5133962;27;40852;-78
2023/07/06 03:53:59;;;;;;;1.97;1.67;;;;;;;13.20;60.93;98991.19;5116921;27;41210;-78
2023/07/06 03:56:28;;;;;;;2.27;2.07;;;;;;;13.25;61.20;98989.03;5137468;27;42982;-78
2023/07/06 03:58:57;;;;;;;3.40;2.27;;;;;;;13.32;62.18;98977.97;5119440;27;42314;-78
2023/07/06 04:01:28;;;;;;;2.63;2.20;;;;;;;13.37;61.60;98986.47;5119954;27;40146;-78
2023/07/06 04:03:57;;;;;;;2.20;1.80;;;;;;;13.44;61.55;98982.41;5119768;27;40857;-78
2023/07/06 04:06:25;;;;;;;3.03;1.97;;;;;;;13.42;61.36;98974.53;5137036;27;42299;-78
2023/07/06 04:08:56;;;;;;;2.30;2.00;;;;;;;13.58;61.16;98990.25;5119643;27;41198;-78
2023/07/06 04:11:24;;;;;;;2.30;2.10;;;;;;;13.41;61.42;98954.22;5156066;27;40982;-78
2023/07/06 04:13:57;;;;;;;3.03;1.90;;;;;;;13.68;61.29;98985.09;5119316;27;41863;-78
2023/07/06 04:16:26;;;;;;;3.40;2.47;;;;;;;13.70;61.42;98976.06;5119895;27;41860;-78
2023/07/06 04:18:55;;;;;;;2.93;2.23;;;;;;;13.73;61.46;98967.81;5155096;27;42560;-78
2023/07/06 04:21:23;;;;;;;2.30;1.80;;;;;;;13.93;61.69;99001.81;5119437;27;40364;-77
2023/07/06 04:23:50;;;;;;;3.10;2.60;;;;;;;14.00;61.43;98997.72;5119121;27;40605;-78
2023/07/06 04:26:20;;;;;;;3.13;2.40;;;;;;;14.08;62.14;99001.66;5119289;27;43073;-78
2023/07/06 04:28:49;;;;;;;3.30;2.27;;;;;;;14.15;61.91;99000.22;5155240;27;42085;-78
2023/07/06 04:31:18;;;;;;;3.97;2.30;;;;;;;14.24;61.47;98999.53;5155518;27;41805;-77
2023/07/06 04:33:47;;;;;;;4.77;2.23;;;;;;;14.33;61.42;99001.53;5136014;27;40940;-77
2023/07/06 04:36:17;;;;;;;2.57;2.30;;;;;;;14.43;61.54;99005.22;5118379;27;42067;-78
2023/07/06 04:38:45;;;;;;;2.97;2.37;;;;;;;14.44;61.72;98990.94;5135972;27;42032;-77
2023/07/06 04:41:13;;;;;;;2.50;2.30;;;;;;;14.50;62.13;98974.47;5119165;27;42239;-77
2023/07/06 04:43:41;;;;;;;3.33;2.40;;;;;;;14.70;62.36;98996.94;5118936;27;41605;-77
2023/07/06 04:46:08;;;;;;;2.83;2.10;;;;;;;14.78;62.21;98993.66;5136462;27;43799;-78
2023/07/06 04:48:36;;;;;;;3.03;2.73;;;;;;;14.86;62.16;99004.56;5136319;27;43248;-77
2023/07/06 04:51:05;;;;;;;4.53;2.30;;;;;;;14.84;63.18;98982.50;5119236;27;41090;-77
2023/07/06 04:53:33;;;;;;;3.67;2.20;;;;;;;15.01;62.37;99006.06;5136201;27;42072;-77
2023/07/06 04:56:02;;;;;;;3.07;2.20;;;;;;;14.77;61.98;98951.97;5118858;27;42060;-77
2023/07/06 04:58:30;;;;;;;2.27;2.07;;;;;;;15.23;61.60;99022.06;5154452;27;42357;-77
2023/07/06 05:01:05;;;;;;;3.33;2.30;;;;;;;15.33;61.82;99023.03;5118892;27;41107;-78
2023/07/06 05:03:34;;;;;;;4.20;2.70;;;;;;;15.46;62.06;99020.22;5118601;27;40754;-77
2023/07/06 05:06:03;;;;;;;3.20;2.60;;;;;;;15.56;62.11;99028.41;5118053;27;42599;-77
2023/07/06 05:08:33;;;;;;;3.60;3.03;;;;;;;15.68;61.89;99027.41;5118424;27;41299;-77
2023/07/06 05:11:03;;;;;;;2.70;2.30;;;;;;;15.79;61.50;99027.41;5136323;27;41881;-77
2023/07/06 05:13:31;;;;;;;3.77;2.63;;;;;;;15.82;61.04;99021.81;5135730;27;40811;-77
2023/07/06 05:15:59;;;;;;;4.33;2.67;;;;;;;16.03;60.66;99033.41;5136229;27;42722;-77
2023/07/06 05:18:29;;;;;;;2.90;2.40;;;;;;;16.16;60.36;99038.59;5118360;27;41281;-78
2023/07/06 05:20:57;;;;;;;4.47;2.90;;;;;;;16.29;60.23;99044.63;5135735;27;42341;-78
2023/07/06 05:23:27;;;;;;;3.73;2.90;;;;;;;16.40;60.44;99047.25;5135463;27;42680;-77
2023/07/06 05:26:00;;;;;;;4.57;2.80;;;;;;;16.52;60.16;99040.88;5118360;27;42148;-77
2023/07/06 05:28:29;;;;;;;4.70;2.47;;;;;;;16.65;60.15;99038.06;5135817;27;42509;-77
2023/07/06 05:30:57;;;;;;;3.97;3.07;;;;;;;16.79;59.80;99042.22;5154114;27;40827;-78
2023/07/06 05:33:25;;;;;;;4.13;2.50;;;;;;;16.60;59.35;98994.75;5135653;27;41790;-78
2023/07/06 05:35:53;;;;;;;3.63;2.90;;;;;;;17.04;59.39;99046.34;5117799;27;43242;-78
2023/07/06 05:38:20;;;;;;;2.60;2.17;;;;;;;17.16;58.95;99051.47;5135523;27;43001;-78
2023/07/06 05:40:48;;;;;;;4.13;2.77;;;;;;;17.17;58.58;99030.91;5135325;27;40144;-74
2023/07/06 05:43:19;;;;;;;4.20;2.30;;;;;;;17.41;58.86;99044.84;5153197;27;42613;-74
2023/07/06 05:45:47;;;;;;;3.87;2.70;;;;;;;17.54;58.21;99053.50;5150008;27;43777;-74
2023/07/06 05:48:15;;;;;;;3.03;2.60;;;;;;;17.65;58.14;99047.22;5117309;27;42817;-74
2023/07/06 05:50:43;;;;;;;5.07;2.57;;;;;;;17.78;57.55;99055.00;5117438;27;40884;-74
2023/07/06 05:53:11;;;;;;;4.10;2.53;;;;;;;17.98;57.42;99054.06;5116856;27;40850;-74
2023/07/06 05:55:40;;;;;;;4.03;2.40;;;;;;;18.12;57.09;99056.34;5117440;27;41621;-74
2023/07/06 05:58:08;;;;;;;4.13;2.53;;;;;;;18.27;56.44;99065.69;5117171;27;41194;-74
2023/07/06 06:00:37;;;;;;;4.40;2.70;;;;;;;18.42;56.38;99068.78;5153305;27;40867;-74
2023/07/06 06:03:04;;;;;;;4.73;2.40;;;;;;;18.57;55.96;99071.91;5134199;27;41776;-74
2023/07/06 06:05:33;;;;;;;3.53;2.80;;;;;;;18.73;55.34;99077.59;5117330;27;42009;-74
2023/07/06 06:08:02;;;;;;;3.67;2.80;;;;;;;18.86;54.63;99083.53;5152805;27;42292;-74
2023/07/06 06:10:31;;;;;;;3.87;2.53;;;;;;;18.98;54.19;99082.38;5134509;27;41861;-74
2023/07/06 06:12:59;;;;;;;3.33;2.63;;;;;;;19.11;54.41;99084.75;5153173;27;41706;-74
2023/07/06 06:15:27;;;;;;;5.10;3.47;;;;;;;19.24;53.49;99088.00;5117060;27;42851;-74
2023/07/06 06:17:56;;;;;;;3.80;2.97;;;;;;;19.31;53.25;99093.59;5115770;27;41173;-74
2023/07/06 06:20:23;;;;;;;4.63;3.13;;;;;;;19.47;53.45;99093.84;5134429;27;40941;-74
2023/07/06 06:22:51;;;;;;;4.27;2.77;;;;;;;19.65;53.23;99091.28;5116689;27;41722;-74
2023/07/06 06:25:19;;;;;;;2.93;2.17;;;;;;;19.84;53.02;99101.09;5134051;27;43069;-74
2023/07/06 06:27:47;;;;;;;2.60;2.20;;;;;;;20.06;52.37;99100.69;5133942;27;42388;-74
2023/07/06 06:30:16;;;;;;;3.63;2.20;;;;;;;20.25;51.86;99105.97;5134199;27;41649;-75
2023/07/06 06:32:44;;;;;;;2.60;1.90;;;;;;;20.44;51.37;99111.25;5134022;27;42781;-74
2023/07/06 06:35:24;;;;;;;4.03;2.70;;;;;;;20.69;50.76;99123.13;5133933;27;43702;-75
2023/07/06 06:37:52;;;;;;;3.30;2.27;;;;;;;20.94;49.95;99118.81;5149438;27;42447;-74
2023/07/06 06:40:23;;;;;;;2.53;2.17;;;;;;;21.14;49.83;99119.50;5152661;27;41846;-74
2023/07/06 06:42:50;;;;;;;3.10;1.90;;;;;;;21.38;48.74;99132.31;5153013;27;41636;-74
2023/07/06 06:45:19;;;;;;;3.03;2.33;;;;;;;21.69;48.37;99125.44;5134315;27;43327;-75
2023/07/06 06:47:47;;;;;;;3.33;2.27;;;;;;;21.96;47.91;99123.56;5133814;27;41293;-75
2023/07/06 06:50:16;;;;;;;4.43;2.23;;;;;;;22.20;46.85;99137.19;5134102;27;40959;-74
2023/07/06 06:52:46;;;;;;;3.90;2.00;;;;;;;22.33;46.12;99145.66;5133428;27;40724;-74
2023/07/06 06:55:14;;;;;;;2.57;1.93;;;;;;;22.38;45.53;99148.69;5133808;27;44091;-74
2023/07/06 06:57:42;;;;;;;3.60;2.33;;;;;;;22.47;45.85;99141.50;5116028;27;41188;-75
2023/07/06 07:00:14;;;;;;;2.20;1.83;;;;;;;22.54;45.46;99142.50;5152198;27;41827;-74
2023/07/06 07:02:42;;;;;;;2.33;1.70;;;;;;;22.64;45.71;99131.56;5133577;27;40852;-74
2023/07/06 07:05:12;;;;;;;2.97;2.07;;;;;;;22.75;45.87;99128.56;5133496;27;43046;-75
2023/07/06 07:07:40;;;;;;;2.00;1.80;;;;;;;22.88;45.81;99128.91;5133181;27;41738;-75
2023/07/06 07:10:10;;;;;;;2.60;1.87;;;;;;;23.03;44.74;99137.22;5116092;27;40007;-75
2023/07/06 07:12:39;;;;;;;2.10;1.80;;;;;;;23.12;45.04;99128.94;5133495;27;41125;-75
2023/07/06 07:15:10;;;;;;;2.07;1.50;;;;;;;23.47;43.54;99140.44;5133151;27;42766;-74
2023/07/06 07:17:38;;;;;;;1.80;1.57;;;;;;;23.67;42.98;99141.75;5115846;27;41338;-75
2023/07/06 07:20:09;;;;;;;2.20;1.33;;;;;;;23.78;42.92;99148.66;5151950;27;40933;-74
2023/07/06 07:22:38;;;;;;;2.83;1.40;;;;;;;23.86;42.67;99151.38;5133429;27;41010;-74
2023/07/06 07:25:07;;;;;;;3.07;1.60;;;;;;;23.97;43.02;99146.44;5133307;27;43732;-75
2023/07/06 07:27:36;;;;;;;3.70;2.13;;;;;;;24.06;41.64;99154.50;5132921;27;42250;-74
2023/07/06 07:30:04;;;;;;;2.87;1.70;;;;;;;24.15;41.42;99150.75;5118582;27;40294;-75
2023/07/06 07:32:32;;;;;;;3.07;1.70;;;;;;;24.29;40.76;99155.47;5155380;27;42469;-76
2023/07/06 07:35:01;;;;;;;2.47;1.57;;;;;;;24.46;39.88;99164.38;5136163;27;43639;-74
2023/07/06 07:37:28;;;;;;;2.50;1.60;;;;;;;24.72;40.36;99161.34;5136753;27;41712;-75
2023/07/06 07:39:57;;;;;;;3.63;2.00;;;;;;;24.97;40.61;99157.47;5136879;27;40877;-75
2023/07/06 07:42:25;;;;;;;3.53;1.80;;;;;;;25.16;40.12;99161.56;5119457;27;40807;-75
2023/07/06 07:44:55;;;;;;;2.37;2.00;;;;;;;25.37;39.06;99165.28;5136623;27;44223;-74
2023/07/06 07:47:24;;;;;;;4.33;1.50;;;;;;;25.69;38.64;99175.03;5136642;27;42506;-75
2023/07/06 07:49:54;;;;;;;2.57;1.60;;;;;;;26.47;37.28;99185.34;5155008;27;41715;-75
2023/07/06 07:52:22;;;;;;;1.80;1.50;;;;;;;27.70;35.37;99187.09;5155134;27;41759;-75
2023/07/06 07:54:51;;;;;;;1.90;1.73;;;;;;;28.97;33.09;99210.28;5136589;27;42320;-75
2023/07/06 07:57:18;;;;;;;2.20;1.50;;;;;;;29.96;31.37;99214.00;5119348;27;41103;-76
2023/07/06 07:59:48;;;;;;;3.63;1.80;;;;;;;30.97;30.73;99214.34;5136385;27;40726;-75
2023/07/06 08:02:18;;;;;;;2.60;1.70;;;;;;;32.24;29.31;99224.19;5136564;27;42446;-75
2023/07/06 08:04:47;;;;;;;4.03;2.20;;;;;;;33.50;27.15;99226.22;5136177;27;42876;-76
2023/07/06 08:07:15;;;;;;;1.63;1.53;;;;;;;34.74;25.83;99236.09;5136292;27;43258;-75
2023/07/06 08:09:43;;;;;;;3.40;1.80;;;;;;;35.68;24.21;99235.72;5118936;27;40887;-75
2023/07/06 08:12:11;;;;;;;1.73;1.60;;;;;;;36.57;23.17;99231.94;5155044;27;41754;-75
2023/07/06 08:14:41;;;;;;;2.83;1.63;;;;;;;37.62;22.23;99250.06;5154580;27;42259;-76
2023/07/06 08:17:10;;;;;;;2.73;1.87;;;;;;;36.87;22.90;99211.34;5118876;27;42272;-76
2023/07/06 08:19:40;;;;;;;2.00;1.65;;;;;;;37.60;22.21;99240.31;5135999;27;40937;-76
2023/07/06 08:22:08;;;;;;;2.30;1.70;;;;;;;38.24;21.23;99237.56;5136377;27;41557;-75
2023/07/06 08:24:37;;;;;;;3.38;1.70;;;;;;;37.29;21.96;99237.28;5154404;27;42769;-76
2023/07/06 08:27:05;;;;;;;2.50;1.50;;;;;;;36.81;22.84;99228.94;5135831;27;42424;-76
2023/07/06 08:29:33;;;;;;;1.90;1.70;;;;;;;37.10;22.53;99233.16;5135954;27;41913;-76
2023/07/06 08:32:03;;;;;;;2.55;2.13;;;;;;;37.03;22.38;99238.03;5118929;27;42051;-75
2023/07/06 08:34:31;;;;;;;2.05;1.75;;;;;;;35.41;23.37;99228.09;5118516;27;41993;-75
2023/07/06 08:37:00;;;;;;;1.73;1.50;;;;;;;34.10;24.21;99220.59;5135931;27;42643;-76
2023/07/06 08:39:28;;;;;;;3.30;1.77;;;;;;;33.01;25.77;99208.94;5118459;27;39809;-76
2023/07/06 08:41:57;;;;;;;1.80;1.70;;;;;;;32.93;26.02;99206.53;5134661;27;41953;-75
2023/07/06 08:44:25;;;;;;;2.43;1.60;;;;;;;32.63;26.55;99209.22;5118323;27;42940;-75
2023/07/06 08:46:55;;;;;;;2.07;1.70;;;;;;;32.64;26.16;99212.78;5135820;27;42110;-75
2023/07/06 08:49:28;;;;;;;3.47;1.90;;;;;;;32.02;26.61;99217.44;5135726;27;42111;-75
2023/07/06 08:51:57;;;;;;;3.97;2.40;;;;;;;32.18;26.44;99205.91;5132665;27;42775;-75
2023/07/06 08:54:26;;;;;;;3.07;1.87;;;;;;;32.61;26.46;99205.00;5118294;27;43245;-75
2023/07/06 08:56:56;;;;;;;3.03;1.70;;;;;;;32.48;26.42;99197.78;5154302;27;43440;-75
2023/07/06 08:59:36;;;;;;;1.97;1.73;;;;;;;32.51;26.59;99204.72;5135314;27;39919;-75
2023/07/06 09:02:18;;;;;;;2.57;1.83;;;;;;;32.72;25.64;99207.03;5135374;27;43480;-75
2023/07/06 09:04:47;;;;;;;2.17;1.50;;;;;;;32.92;25.77;99204.84;5154160;27;42781;-76
2023/07/06 09:07:17;;;;;;;3.50;2.23;;;;;;;33.26;25.85;99203.31;5135314;27;41475;-76
2023/07/06 09:09:48;;;;;;;3.00;1.70;;;;;;;33.02;26.18;99205.13;5153978;27;40562;-75
2023/07/06 09:12:24;;;;;;;2.43;2.10;;;;;;;32.86;26.44;99199.47;5154259;27;41455;-75
2023/07/06 09:14:53;;;;;;;3.00;1.83;;;;;;;33.10;25.27;99207.56;5153751;27;42857;-74
2023/07/06 09:17:21;;;;;;;2.47;1.70;;;;;;;33.41;24.75;99209.22;5153975;27;42219;-73
2023/07/06 09:19:51;;;;;;;3.33;1.63;;;;;;;32.75;25.91;99198.34;5154024;27;40997;-76
2023/07/06 09:22:21;;;;;;;2.40;1.60;;;;;;;32.71;25.54;99191.59;5135256;27;41664;-75
2023/07/06 09:24:52;;;;;;;3.27;1.80;;;;;;;32.35;26.36;99204.25;5134994;27;42964;-74
2023/07/06 09:27:23;;;;;;;3.37;1.70;;;;;;;31.90;26.81;99191.84;5135528;27;42999;-74
2023/07/06 09:30:00;;;;;;;2.90;1.80;;;;;;;31.92;26.46;99192.44;5154068;27;41051;-76
2023/07/06 09:32:32;;;;;;;2.93;1.73;;;;;;;33.17;25.85;99191.81;5150738;27;42775;-74
2023/07/06 09:35:04;;;;;;;2.90;1.80;;;;;;;34.15;24.54;99205.03;5150618;27;43691;-74
2023/07/06 09:37:32;;;;;;;1.90;1.80;;;;;;;34.79;23.41;99221.63;5134955;27;41559;-75
2023/07/06 09:40:05;;;;;;;2.87;2.10;;;;;;;34.79;23.50;99221.63;5153461;27;41028;-74
2023/07/06 09:42:33;;;;;;;1.60;1.50;;;;;;;33.76;24.20;99203.81;5134740;27;41802;-75
2023/07/06 09:45:04;;;;;;;1.90;1.80;;;;;;;34.54;23.76;99216.38;5134878;27;41948;-74
2023/07/06 09:47:34;;;;;;;1.87;1.73;;;;;;;35.98;22.53;99217.78;5131599;27;42874;-75
2023/07/06 09:50:15;;;;;;;3.07;2.00;;;;;;;37.18;21.22;99226.38;5117629;27;40939;-74
2023/07/06 09:52:43;;;;;;;2.25;1.88;;;;;;;37.63;20.54;99237.91;5134695;27;40626;-74
2023/07/06 09:55:19;;;;;;;2.85;1.95;;;;;;;38.48;20.22;99233.28;5153435;27;42928;-75
2023/07/06 09:57:49;;;;;;;2.95;1.88;;;;;;;39.31;19.17;99237.00;5150219;27;42287;-75
2023/07/06 10:00:20;;;;;;;4.28;2.00;;;;;;;39.59;19.12;99240.38;5134565;27;42657;-74
2023/07/06 10:02:59;;;;;;;2.50;1.67;;;;;;;39.68;18.92;99224.88;5150462;27;42747;-75
2023/07/06 10:05:36;;;;;;;2.15;1.75;;;;;;;39.21;19.17;99223.09;5149914;27;43291;-75
2023/07/06 10:08:11;;;;;;;2.85;1.95;;;;;;;38.62;19.51;99226.22;5150227;27;42511;-75
2023/07/06 10:10:51;;;;;;;2.33;1.98;;;;;;;37.96;20.25;99214.66;5134334;27;40447;-75
2023/07/06 10:13:38;;;;;;;4.20;2.40;;;;;;;37.49;21.12;99213.69;5150701;27;41692;-75
2023/07/06 10:16:16;;;;;;;2.60;2.17;;;;;;;37.11;20.86;99209.97;5117237;27;42819;-75
2023/07/06 10:18:50;;;;;;;2.23;1.80;;;;;;;36.90;20.97;99219.94;5133852;27;41283;-75
2023/07/06 10:21:23;;;;;;;2.85;1.98;;;;;;;36.97;20.86;99205.94;5131041;27;40791;-75
2023/07/06 10:24:12;;;;;;;2.80;2.10;;;;;;;37.18;20.94;99215.31;5151060;27;41495;-75
2023/07/06 10:26:47;;;;;;;2.88;2.22;;;;;;;36.94;20.17;99221.09;5133844;27;42785;-76
2023/07/06 10:29:19;;;;;;;2.97;2.00;;;;;;;36.14;21.26;99215.25;5132964;27;42497;-75
2023/07/06 10:31:51;;;;;;;2.87;2.07;;;;;;;35.19;21.13;99222.44;5131009;27;40897;-75
2023/07/06 10:34:27;;;;;;;2.90;2.10;;;;;;;34.30;22.20;99201.00;5116547;27;41601;-75
2023/07/06 10:36:56;;;;;;;3.47;2.10;;;;;;;34.68;22.37;99208.69;5133853;27;42792;-75
2023/07/06 10:40:01;;;;;;;3.83;2.17;;;;;;;35.32;23.16;99196.53;5152596;27;42209;-75
2023/07/06 10:42:32;;;;;;;2.73;2.03;;;;;;;35.54;22.26;99218.69;5142185;27;40652;-75
2023/07/06 10:45:02;;;;;;;2.47;2.00;;;;;;;34.86;22.61;99214.06;5116691;27;41033;-76
2023/07/06 10:47:36;;;;;;;2.50;2.00;;;;;;;34.61;23.12;99197.00;5148881;27;42504;-75
2023/07/06 10:50:16;;;;;;;5.13;2.30;;;;;;;34.11;23.24;99198.38;5133948;27;41355;-75
2023/07/06 10:52:55;;;;;;;2.53;2.07;;;;;;;33.61;24.09;99194.34;5116182;27;40401;-75
2023/07/06 10:55:23;;;;;;;3.43;2.10;;;;;;;33.49;23.67;99191.59;5133838;27;40537;-76
2023/07/06 10:57:57;;;;;;;3.50;2.00;;;;;;;33.48;24.35;99198.16;5133227;27;42780;-76
2023/07/06 11:00:35;;;;;;;3.13;1.77;;;;;;;33.14;24.14;99189.53;5149034;27;43041;-75
2023/07/06 11:03:05;;;;;;;3.33;2.00;;;;;;;32.81;24.29;99180.94;5116026;27;40933;-76
2023/07/06 11:05:36;;;;;;;3.17;2.30;;;;;;;32.67;24.67;99187.63;5115966;27;41477;-76
2023/07/06 11:08:10;;;;;;;2.70;2.10;;;;;;;32.50;24.60;99189.34;5149546;27;43374;-77
2023/07/06 11:10:46;;;;;;;3.17;1.97;;;;;;;32.86;24.22;99170.13;5133903;27;41275;-76
2023/07/06 11:13:20;;;;;;;2.80;1.87;;;;;;;33.17;24.69;99180.84;5133453;27;42390;-75
2023/07/06 11:16:05;;;;;;;3.17;1.90;;;;;;;33.29;24.84;99188.31;5133686;27;40679;-75
2023/07/06 11:18:40;;;;;;;2.50;1.80;;;;;;;33.46;24.79;99189.31;5150210;27;44285;-76
2023/07/06 11:21:30;;;;;;;3.10;1.93;;;;;;;33.51;25.03;99142.72;5148926;27;42343;-76
2023/07/06 11:24:06;;;;;;;2.83;2.00;;;;;;;34.01;24.85;99167.03;5150703;27;41041;-76
2023/07/06 11:26:42;;;;;;;4.50;2.20;;;;;;;34.28;23.54;99181.97;5116068;27;40699;-75
2023/07/06 11:29:12;;;;;;;3.13;2.17;;;;;;;34.58;23.99;99187.31;5150591;27;43413;-76
2023/07/06 11:31:58;;;;;;;2.13;1.83;;;;;;;34.81;23.99;99164.41;5151507;27;43140;-75
2023/07/06 11:34:36;;;;;;;3.13;2.40;;;;;;;35.23;22.93;99198.00;5132639;27;40615;-76
2023/07/06 11:37:12;;;;;;;2.40;2.10;;;;;;;35.19;22.59;99189.38;5148828;27;41819;-76
2023/07/06 11:39:49;;;;;;;2.53;2.00;;;;;;;34.97;23.30;99193.91;5132718;27;42980;-76
2023/07/06 11:42:34;;;;;;;4.53;2.07;;;;;;;34.51;22.95;99201.19;5129922;27;43451;-75
2023/07/06 11:45:13;;;;;;;2.77;2.17;;;;;;;33.92;23.05;99195.97;5130002;27;41886;-74
2023/07/06 11:47:54;;;;;;;2.10;1.90;;;;;;;33.36;24.00;99189.06;5129692;27;41836;-76
2023/07/06 11:50:23;;;;;;;2.23;2.03;;;;;;;33.21;24.20;99169.41;5129785;27;43617;-75
2023/07/06 11:52:58;;;;;;;2.60;1.87;;;;;;;34.51;24.17;99181.09;5132612;27;41228;-75